createdAt,value
2023-05-04T00:01:11.580Z,8.33
2023-05-04T00:03:40.530Z,7.23
2023-05-04T00:06:10.756Z,7.50
2023-05-04T00:08:39.328Z,7.10
2023-05-04T00:11:07.845Z,7.53
2023-05-04T00:13:36.387Z,7.40
2023-05-04T00:16:05.336Z,7.47
2023-05-04T00:18:34.477Z,7.10
2023-05-04T00:21:03.010Z,7.77
2023-05-04T00:23:33.225Z,7.83
2023-05-04T00:26:02.283Z,7.73
2023-05-04T00:28:31.018Z,6.93
2023-05-04T00:30:59.572Z,7.37
2023-05-04T00:33:28.294Z,7.57
2023-05-04T00:35:56.885Z,7.83
2023-05-04T00:38:25.564Z,8.23
2023-05-04T00:40:55.500Z,8.00
2023-05-04T00:43:24.104Z,8.30
2023-05-04T00:45:52.806Z,7.00
2023-05-04T00:48:21.429Z,7.57
2023-05-04T00:50:50.055Z,8.70
2023-05-04T00:53:18.547Z,7.73
2023-05-04T00:55:47.860Z,7.50
2023-05-04T00:58:19.006Z,7.70
2023-05-04T01:00:47.803Z,7.67
2023-05-04T01:03:16.521Z,6.93
2023-05-04T01:05:50.748Z,7.87
2023-05-04T01:08:23.364Z,7.53
2023-05-04T01:10:57.987Z,7.77
2023-05-04T01:13:29.674Z,8.70
2023-05-04T01:15:58.599Z,8.03
2023-05-04T01:18:27.610Z,8.60
2023-05-04T01:20:56.315Z,7.57
2023-05-04T01:23:27.607Z,8.50
2023-05-04T01:26:04.851Z,9.00
2023-05-04T01:28:40.637Z,8.90
2023-05-04T01:31:12.989Z,8.20
2023-05-04T01:33:42.620Z,7.97
2023-05-04T01:36:11.760Z,7.70
2023-05-04T01:38:43.685Z,8.23
2023-05-04T01:41:13.041Z,9.03
2023-05-04T01:43:42.684Z,9.20
2023-05-04T01:46:11.825Z,8.70
2023-05-04T01:48:40.916Z,8.17
2023-05-04T01:51:09.645Z,8.17
2023-05-04T01:53:38.149Z,8.87
2023-05-04T01:56:08.978Z,7.83
2023-05-04T01:58:37.527Z,8.77
2023-05-04T02:01:06.846Z,9.53
2023-05-04T02:03:35.557Z,8.77
2023-05-04T02:06:04.913Z,8.37
2023-05-04T02:08:33.667Z,8.50
2023-05-04T02:11:06.167Z,8.37
2023-05-04T02:13:36.709Z,8.33
2023-05-04T02:16:06.216Z,9.40
2023-05-04T02:18:35.092Z,9.30
2023-05-04T02:21:04.052Z,9.10
2023-05-04T02:23:32.603Z,8.87
2023-05-04T02:26:01.864Z,8.33
2023-05-04T02:28:30.507Z,9.67
2023-05-04T02:31:00.504Z,9.07
2023-05-04T02:33:29.026Z,9.30
2023-05-04T02:35:57.672Z,8.53
2023-05-04T02:38:27.701Z,8.97
2023-05-04T02:40:58.457Z,9.20
2023-05-04T02:43:26.964Z,9.20
2023-05-04T02:45:55.917Z,9.17
2023-05-04T02:48:26.068Z,9.77
2023-05-04T02:50:54.960Z,9.37
2023-05-04T02:53:23.624Z,10.00
2023-05-04T02:55:52.247Z,9.03
2023-05-04T02:58:20.852Z,8.27
2023-05-04T03:00:49.669Z,9.50
2023-05-04T03:03:18.272Z,9.27
2023-05-04T03:05:48.190Z,9.60
2023-05-04T03:08:16.740Z,9.83
2023-05-04T03:10:45.298Z,9.57
2023-05-04T03:13:13.944Z,10.77
2023-05-04T03:15:43.566Z,9.70
2023-05-04T03:18:12.480Z,9.90
2023-05-04T03:20:41.141Z,9.80
2023-05-04T03:23:13.995Z,9.67
2023-05-04T03:25:42.622Z,10.17
2023-05-04T03:28:11.160Z,9.67
2023-05-04T03:30:39.807Z,9.40
2023-05-04T03:33:08.832Z,9.00
2023-05-04T03:35:37.926Z,8.97
2023-05-04T03:38:07.817Z,9.57
2023-05-04T03:40:39.116Z,9.27
2023-05-04T03:43:07.734Z,9.43
2023-05-04T03:45:37.170Z,9.43
2023-05-04T03:48:05.821Z,9.97
2023-05-04T03:50:34.404Z,9.53
2023-05-04T03:53:02.854Z,10.27
2023-05-04T03:55:31.507Z,9.43
2023-05-04T03:58:01.587Z,10.20
2023-05-04T04:00:30.414Z,9.57
2023-05-04T04:03:10.423Z,11.10
2023-05-04T04:05:39.957Z,10.43
2023-05-04T04:08:08.735Z,10.90
2023-05-04T04:10:37.468Z,10.90
2023-05-04T04:13:07.829Z,10.93
2023-05-04T04:15:36.333Z,10.33
2023-05-04T04:18:04.976Z,10.40
2023-05-04T04:20:34.260Z,10.20
2023-05-04T04:23:02.806Z,11.27
2023-05-04T04:25:31.913Z,11.60
2023-05-04T04:28:00.452Z,11.63
2023-05-04T04:30:30.862Z,10.60
2023-05-04T04:32:59.583Z,11.83
2023-05-04T04:35:28.197Z,11.87
2023-05-04T04:37:56.775Z,11.53
2023-05-04T04:40:25.898Z,10.47
2023-05-04T04:42:54.330Z,11.83
2023-05-04T04:45:23.776Z,10.57
2023-05-04T04:47:54.019Z,12.03
2023-05-04T04:50:22.937Z,10.70
2023-05-04T04:52:51.660Z,10.87
2023-05-04T04:55:20.357Z,11.20
2023-05-04T04:57:48.777Z,10.30
2023-05-04T05:00:18.930Z,11.60
2023-05-04T05:02:48.575Z,11.63
2023-05-04T05:05:18.940Z,10.03
2023-05-04T05:07:47.730Z,11.87
2023-05-04T05:10:16.773Z,10.50
2023-05-04T05:12:45.416Z,10.70
2023-05-04T05:15:14.314Z,10.10
2023-05-04T05:17:43.039Z,10.33
2023-05-04T05:20:11.956Z,10.13
2023-05-04T05:22:43.057Z,9.80
2023-05-04T05:25:12.625Z,10.27
2023-05-04T05:27:41.296Z,9.50
2023-05-04T05:30:10.158Z,9.97
2023-05-04T05:32:39.926Z,9.77
2023-05-04T05:35:10.317Z,9.90
2023-05-04T05:37:39.148Z,9.70
2023-05-04T05:40:11.243Z,9.40
2023-05-04T05:42:39.720Z,9.53
2023-05-04T05:45:09.717Z,9.03
2023-05-04T05:47:38.263Z,9.50
2023-05-04T05:50:08.723Z,8.90
2023-05-04T05:52:37.964Z,9.17
2023-05-04T05:55:08.906Z,8.77
2023-05-04T05:57:37.501Z,8.77
2023-05-04T06:00:07.832Z,8.33
2023-05-04T06:02:43.450Z,8.20
2023-05-04T06:05:12.871Z,8.30
2023-05-04T06:07:41.425Z,7.90
2023-05-04T06:10:12.146Z,8.30
2023-05-04T06:12:40.884Z,8.00
2023-05-04T06:15:10.624Z,7.60
2023-05-04T06:17:39.162Z,7.93
2023-05-04T06:20:08.985Z,7.97
2023-05-04T06:22:37.640Z,8.97
2023-05-04T06:25:08.112Z,6.80
2023-05-04T06:27:38.498Z,7.63
2023-05-04T06:30:08.479Z,7.10
2023-05-04T06:32:37.403Z,6.67
2023-05-04T06:35:06.799Z,7.10
2023-05-04T06:37:35.473Z,6.00
2023-05-04T06:40:05.469Z,6.13
2023-05-04T06:42:34.101Z,5.90
2023-05-04T06:45:04.458Z,5.43
2023-05-04T06:47:36.718Z,6.33
2023-05-04T06:50:09.470Z,6.07
2023-05-04T06:52:41.177Z,5.90
2023-05-04T06:55:10.270Z,5.37
2023-05-04T06:57:39.094Z,4.73
2023-05-04T07:00:11.120Z,6.07
2023-05-04T07:02:39.738Z,5.57
2023-05-04T07:05:09.014Z,6.37
2023-05-04T07:07:37.795Z,6.00
2023-05-04T07:10:07.601Z,6.20
2023-05-04T07:12:36.421Z,5.73
2023-05-04T07:15:06.861Z,6.23
2023-05-04T07:17:37.792Z,6.27
2023-05-04T07:20:07.324Z,6.03
2023-05-04T07:22:36.418Z,5.30
2023-05-04T07:25:05.415Z,5.37
2023-05-04T07:27:36.400Z,5.20
2023-05-04T07:30:07.155Z,5.30
2023-05-04T07:32:37.276Z,5.20
2023-05-04T07:35:06.700Z,4.97
2023-05-04T07:37:35.377Z,5.20
2023-05-04T07:40:06.209Z,4.50
2023-05-04T07:42:35.429Z,5.03
2023-05-04T07:45:04.367Z,4.33
2023-05-04T07:47:33.138Z,5.23
2023-05-04T07:50:03.414Z,5.33
2023-05-04T07:52:32.425Z,4.73
2023-05-04T07:55:01.343Z,4.83
2023-05-04T07:57:30.270Z,4.70
2023-05-04T07:59:58.811Z,4.53
2023-05-04T08:02:27.474Z,4.20
2023-05-04T08:04:56.717Z,4.53
2023-05-04T08:07:26.926Z,4.40
2023-05-04T08:09:56.947Z,4.07
2023-05-04T08:12:27.590Z,4.93
2023-05-04T08:14:56.152Z,4.30
2023-05-04T08:17:24.741Z,5.10
2023-05-04T08:19:53.257Z,4.60
2023-05-04T08:22:21.745Z,4.27
2023-05-04T08:24:51.707Z,4.40
2023-05-04T08:27:22.163Z,4.80
2023-05-04T08:29:53.204Z,4.57
2023-05-04T08:32:21.771Z,4.57
2023-05-04T08:34:50.867Z,4.60
2023-05-04T08:37:20.252Z,4.80
2023-05-04T08:39:48.901Z,4.43
2023-05-04T08:42:29.880Z,4.37
2023-05-04T08:45:01.051Z,4.67
2023-05-04T08:47:30.575Z,4.77
2023-05-04T08:49:59.222Z,4.80
2023-05-04T08:52:28.738Z,5.30
2023-05-04T08:54:59.888Z,4.33
2023-05-04T08:57:30.757Z,5.07
2023-05-04T09:00:01.532Z,5.20
2023-05-04T09:02:31.408Z,4.47
2023-05-04T09:05:00.524Z,5.30
2023-05-04T09:07:29.226Z,5.23
2023-05-04T09:09:59.202Z,5.90
2023-05-04T09:12:29.455Z,5.13
2023-05-04T09:14:58.587Z,5.93
2023-05-04T09:17:29.584Z,5.67
2023-05-04T09:20:02.369Z,5.77
2023-05-04T09:22:31.750Z,5.77
2023-05-04T09:25:11.867Z,5.60
2023-05-04T09:27:43.135Z,5.70
2023-05-04T09:30:14.541Z,5.60
2023-05-04T09:32:47.619Z,5.50
2023-05-04T09:35:31.912Z,5.57
2023-05-04T09:38:02.080Z,5.20
2023-05-04T09:40:34.724Z,5.80
2023-05-04T09:43:06.860Z,5.73
2023-05-04T09:45:42.515Z,5.70
2023-05-04T09:48:19.288Z,5.97
2023-05-04T09:50:53.928Z,5.10
2023-05-04T09:53:25.351Z,5.50
2023-05-04T09:56:08.117Z,5.83
2023-05-04T09:58:46.985Z,5.90
2023-05-04T10:01:17.108Z,6.17
2023-05-04T10:03:46.561Z,6.57
2023-05-04T10:06:16.762Z,5.80
2023-05-04T10:08:46.049Z,5.80
2023-05-04T10:11:18.831Z,5.03
2023-05-04T10:13:50.522Z,5.90
2023-05-04T10:16:33.211Z,5.50
2023-05-04T10:19:18.631Z,5.53
2023-05-04T10:22:04.906Z,5.10
2023-05-04T10:25:07.572Z,5.93
2023-05-04T10:27:48.703Z,5.90
2023-05-04T10:30:21.008Z,5.43
2023-05-04T10:32:57.444Z,4.80
2023-05-04T10:35:27.152Z,5.10
2023-05-04T10:37:57.726Z,4.90
2023-05-04T10:40:38.171Z,4.97
2023-05-04T10:43:08.925Z,5.07
2023-05-04T10:45:41.942Z,4.67
2023-05-04T10:48:11.725Z,4.80
2023-05-04T10:50:45.082Z,4.77
2023-05-04T10:53:14.806Z,4.63
2023-05-04T10:55:45.447Z,4.40
2023-05-04T10:58:16.917Z,5.50
2023-05-04T11:00:51.949Z,4.60
2023-05-04T11:03:22.566Z,4.33
2023-05-04T11:05:53.478Z,4.20
2023-05-04T11:08:24.508Z,4.57
2023-05-04T11:11:03.052Z,4.20
2023-05-04T11:13:32.464Z,4.17
2023-05-04T11:16:03.389Z,4.03
2023-05-04T11:18:34.545Z,4.13
2023-05-04T11:21:03.941Z,5.10
2023-05-04T11:23:33.678Z,4.70
2023-05-04T11:26:07.962Z,3.90
2023-05-04T11:28:39.055Z,4.97
2023-05-04T11:31:19.141Z,4.93
2023-05-04T11:33:49.392Z,4.67
2023-05-04T11:36:18.863Z,4.40
2023-05-04T11:38:48.577Z,4.80
2023-05-04T11:41:17.637Z,4.77
2023-05-04T11:43:47.898Z,4.97
2023-05-04T11:46:18.581Z,4.00
2023-05-04T11:48:47.816Z,4.27
2023-05-04T11:51:17.124Z,3.83
2023-05-04T11:53:46.170Z,4.03
2023-05-04T11:56:15.220Z,4.20
2023-05-04T11:58:44.217Z,5.10
2023-05-04T12:01:13.300Z,4.40
2023-05-04T12:03:52.254Z,4.20
2023-05-04T12:06:33.495Z,4.10
2023-05-04T12:09:07.219Z,3.53
2023-05-04T12:11:39.022Z,3.67
2023-05-04T12:14:10.173Z,3.38
2023-05-04T12:16:40.258Z,3.30
2023-05-04T12:19:13.098Z,2.95
2023-05-04T12:21:52.054Z,4.38
2023-05-04T12:24:24.150Z,3.90
2023-05-04T12:26:53.258Z,4.05
2023-05-04T12:29:22.278Z,3.42
2023-05-04T12:31:51.371Z,3.47
2023-05-04T12:34:21.955Z,4.35
2023-05-04T12:36:52.724Z,4.15
2023-05-04T12:39:21.975Z,3.65
2023-05-04T12:41:51.457Z,3.40
2023-05-04T12:44:20.409Z,2.95
2023-05-04T12:46:49.485Z,2.83
2023-05-04T12:49:18.380Z,4.03
2023-05-04T12:51:48.884Z,3.65
2023-05-04T12:54:17.808Z,3.50
2023-05-04T12:56:46.821Z,3.35
2023-05-04T12:59:15.743Z,3.55
2023-05-04T13:01:45.392Z,3.20
2023-05-04T13:04:14.534Z,3.10
2023-05-04T13:06:45.627Z,3.20
2023-05-04T13:09:17.495Z,3.10
2023-05-04T13:11:46.483Z,3.65
2023-05-04T13:14:16.091Z,2.85
2023-05-04T13:16:45.032Z,2.67
2023-05-04T13:19:14.058Z,2.70
2023-05-04T13:21:43.335Z,2.90
2023-05-04T13:24:12.397Z,3.00
2023-05-04T13:26:43.186Z,2.92
2023-05-04T13:29:12.871Z,3.03
2023-05-04T13:31:44.981Z,3.28
2023-05-04T13:34:14.141Z,2.97
2023-05-04T13:36:43.088Z,3.00
2023-05-04T13:39:12.051Z,2.80
2023-05-04T13:41:42.702Z,2.33
2023-05-04T13:44:11.809Z,2.53
2023-05-04T13:46:41.154Z,2.60
2023-05-04T13:49:10.077Z,2.90
2023-05-04T13:51:39.325Z,2.60
2023-05-04T13:54:08.136Z,2.80
2023-05-04T13:56:37.081Z,2.47
2023-05-04T13:59:07.508Z,2.50
2023-05-04T14:01:36.497Z,2.42
2023-05-04T14:04:05.649Z,2.50
2023-05-04T14:06:34.610Z,2.45
2023-05-04T14:09:03.722Z,2.58
2023-05-04T14:11:33.454Z,2.55
2023-05-04T14:14:02.582Z,2.53
2023-05-04T14:16:34.053Z,2.72
2023-05-04T14:19:03.942Z,2.63
2023-05-04T14:21:32.883Z,2.03
2023-05-04T14:24:01.883Z,2.35
2023-05-04T14:26:31.033Z,2.55
2023-05-04T14:29:00.146Z,2.72
2023-05-04T14:31:30.191Z,2.53
2023-05-04T14:34:00.521Z,2.20
2023-05-04T14:36:29.843Z,2.60
2023-05-04T14:39:00.782Z,2.13
2023-05-04T14:41:33.707Z,2.35
2023-05-04T14:44:02.962Z,2.05
2023-05-04T14:46:32.390Z,2.60
2023-05-04T14:49:02.967Z,2.40
2023-05-04T14:51:34.159Z,2.70
2023-05-04T14:54:03.938Z,2.45
2023-05-04T14:56:32.931Z,2.60
2023-05-04T14:59:01.970Z,2.30
2023-05-04T15:01:30.900Z,2.45
2023-05-04T15:04:00.349Z,2.90
2023-05-04T15:06:34.158Z,2.40
2023-05-04T15:09:03.624Z,2.65
2023-05-04T15:11:32.748Z,2.15
2023-05-04T15:14:02.207Z,2.40
2023-05-04T15:16:33.309Z,2.50
2023-05-04T15:19:03.244Z,2.67
2023-05-04T15:21:33.931Z,3.05
2023-05-04T15:24:03.006Z,2.88
2023-05-04T15:26:34.113Z,2.50
2023-05-04T15:29:03.378Z,2.53
2023-05-04T15:31:32.391Z,2.38
2023-05-04T15:34:02.838Z,2.65
2023-05-04T15:36:32.202Z,2.45
2023-05-04T15:39:02.482Z,2.70
2023-05-04T15:41:34.102Z,2.50
2023-05-04T15:44:03.212Z,2.22
2023-05-04T15:46:31.953Z,2.30
2023-05-04T15:49:00.690Z,2.55
2023-05-04T15:51:30.915Z,3.25
2023-05-04T15:53:59.892Z,2.88
2023-05-04T15:56:29.757Z,2.13
2023-05-04T15:58:58.535Z,2.42
2023-05-04T16:01:27.210Z,2.65
2023-05-04T16:03:57.022Z,2.35
2023-05-04T16:06:25.564Z,2.10
2023-05-04T16:08:54.080Z,2.25
2023-05-04T16:11:22.552Z,2.40
2023-05-04T16:13:53.145Z,2.45
2023-05-04T16:16:21.860Z,2.85
2023-05-04T16:18:50.357Z,2.80
2023-05-04T16:21:18.852Z,2.50
2023-05-04T16:23:47.322Z,2.47
2023-05-04T16:26:16.151Z,2.45
2023-05-04T16:28:45.748Z,2.60
2023-05-04T16:31:16.658Z,2.30
2023-05-04T16:33:47.473Z,2.60
2023-05-04T16:36:16.202Z,2.40
2023-05-04T16:38:44.697Z,2.63
2023-05-04T16:41:13.444Z,2.45
2023-05-04T16:43:42.189Z,2.57
2023-05-04T16:46:10.737Z,2.57
2023-05-04T16:48:41.190Z,2.60
2023-05-04T16:51:10.067Z,2.63
2023-05-04T16:53:38.607Z,2.80
2023-05-04T16:56:07.829Z,2.50
2023-05-04T16:58:36.390Z,2.83
2023-05-04T17:01:05.186Z,2.80
2023-05-04T17:03:34.318Z,2.50
2023-05-04T17:06:05.052Z,2.50
2023-05-04T17:08:35.014Z,2.70
2023-05-04T17:11:03.620Z,2.30
2023-05-04T17:13:32.077Z,2.90
2023-05-04T17:16:01.082Z,2.30
2023-05-04T17:18:30.172Z,2.53
2023-05-04T17:20:58.921Z,2.63
2023-05-04T17:23:28.960Z,2.70
2023-05-04T17:25:58.135Z,3.00
2023-05-04T17:28:27.160Z,2.70
2023-05-04T17:30:55.752Z,3.03
2023-05-04T17:33:25.189Z,3.10
2023-05-04T17:35:54.654Z,2.42
2023-05-04T17:38:23.309Z,2.83
2023-05-04T17:40:53.282Z,2.72
2023-05-04T17:43:22.123Z,2.47
2023-05-04T17:45:50.653Z,2.75
2023-05-04T17:48:19.340Z,2.80
2023-05-04T17:50:48.171Z,2.10
2023-05-04T17:53:17.088Z,2.25
2023-05-04T17:55:45.620Z,3.00
2023-05-04T17:58:16.423Z,2.30
2023-05-04T18:00:45.552Z,2.53
2023-05-04T18:03:14.747Z,2.70
2023-05-04T18:05:43.433Z,2.70
2023-05-04T18:08:12.014Z,2.77
2023-05-04T18:10:41.343Z,2.70
2023-05-04T18:13:10.037Z,2.70
2023-05-04T18:15:40.267Z,2.90
2023-05-04T18:18:09.472Z,2.90
2023-05-04T18:20:38.365Z,2.53
2023-05-04T18:23:07.380Z,2.70
2023-05-04T18:25:38.166Z,2.80
2023-05-04T18:28:17.129Z,2.70
2023-05-04T18:30:47.778Z,2.33
2023-05-04T18:33:16.946Z,2.53
2023-05-04T18:35:45.708Z,2.93
2023-05-04T18:38:14.435Z,2.93
2023-05-04T18:40:43.149Z,2.90
2023-05-04T18:43:11.768Z,2.77
2023-05-04T18:45:40.519Z,3.40
2023-05-04T18:48:10.808Z,2.87
2023-05-04T18:50:40.439Z,2.83
2023-05-04T18:53:09.055Z,3.17
2023-05-04T18:55:40.542Z,3.40
2023-05-04T18:58:09.201Z,2.73
2023-05-04T19:00:38.008Z,3.27
2023-05-04T19:03:06.875Z,2.90
2023-05-04T19:05:38.392Z,2.40
2023-05-04T19:08:06.993Z,3.00
2023-05-04T19:10:36.009Z,3.20
2023-05-04T19:13:04.793Z,3.10
2023-05-04T19:15:35.071Z,3.00
2023-05-04T19:18:03.882Z,2.63
2023-05-04T19:20:32.616Z,3.00
2023-05-04T19:23:02.806Z,3.20
2023-05-04T19:25:34.982Z,3.10
2023-05-04T19:28:08.807Z,3.17
2023-05-04T19:30:38.018Z,2.87
2023-05-04T19:33:08.557Z,3.20
2023-05-04T19:35:37.706Z,3.50
2023-05-04T19:38:08.373Z,3.87
2023-05-04T19:40:37.552Z,3.30
2023-05-04T19:43:06.734Z,3.47
2023-05-04T19:45:35.892Z,3.43
2023-05-04T19:48:05.415Z,3.37
2023-05-04T19:50:34.585Z,3.80
2023-05-04T19:53:03.681Z,3.50
2023-05-04T19:55:33.900Z,3.80
2023-05-04T19:58:02.632Z,3.70
2023-05-04T20:00:31.776Z,3.43
2023-05-04T20:03:00.969Z,2.80
2023-05-04T20:05:29.965Z,3.03
2023-05-04T20:07:58.737Z,3.40
2023-05-04T20:10:27.505Z,3.80
2023-05-04T20:12:58.500Z,3.50
2023-05-04T20:15:27.228Z,3.50
2023-05-04T20:17:56.552Z,3.77
2023-05-04T20:20:25.368Z,4.00
2023-05-04T20:22:56.138Z,3.27
2023-05-04T20:25:25.194Z,3.70
2023-05-04T20:27:54.328Z,3.60
2023-05-04T20:30:28.254Z,4.07
2023-05-04T20:32:57.276Z,3.40
2023-05-04T20:35:26.437Z,3.53
2023-05-04T20:37:56.220Z,3.70
2023-05-04T20:40:26.290Z,4.30
2023-05-04T20:42:54.952Z,3.50
2023-05-04T20:45:25.543Z,3.50
2023-05-04T20:47:54.893Z,3.80
2023-05-04T20:50:24.399Z,4.27
2023-05-04T20:52:53.322Z,3.70
2023-05-04T20:55:22.425Z,3.73
2023-05-04T20:57:52.706Z,3.90
2023-05-04T21:00:21.633Z,4.20
2023-05-04T21:02:52.490Z,4.13
2023-05-04T21:05:21.173Z,3.87
2023-05-04T21:07:52.165Z,4.00
2023-05-04T21:10:21.363Z,3.97
2023-05-04T21:12:50.425Z,3.40
2023-05-04T21:15:19.301Z,3.53
2023-05-04T21:17:50.026Z,4.00
2023-05-04T21:20:20.295Z,3.77
2023-05-04T21:22:49.012Z,3.53
2023-05-04T21:25:18.550Z,3.77
2023-05-04T21:27:47.810Z,3.63
2023-05-04T21:30:16.638Z,3.87
2023-05-04T21:32:45.284Z,3.53
2023-05-04T21:35:13.919Z,3.87
2023-05-04T21:37:44.178Z,4.07
2023-05-04T21:40:13.288Z,3.67
2023-05-04T21:42:42.159Z,4.10
2023-05-04T21:45:11.478Z,3.40
2023-05-04T21:47:40.572Z,4.17
2023-05-04T21:50:10.419Z,3.87
2023-05-04T21:52:39.194Z,4.07
2023-05-04T21:55:10.052Z,3.90
2023-05-04T21:57:39.183Z,4.07
2023-05-04T22:00:12.479Z,4.50
2023-05-04T22:02:41.195Z,4.17
2023-05-04T22:05:11.580Z,4.07
2023-05-04T22:07:41.152Z,4.07
2023-05-04T22:10:12.601Z,3.73
2023-05-04T22:12:42.757Z,3.20
2023-05-04T22:15:15.111Z,3.70
2023-05-04T22:17:44.598Z,4.07
2023-05-04T22:20:15.191Z,3.53
2023-05-04T22:22:44.824Z,3.60
2023-05-04T22:25:15.684Z,3.67
2023-05-04T22:27:45.155Z,3.67
2023-05-04T22:30:15.625Z,4.60
2023-05-04T22:32:44.917Z,4.00
2023-05-04T22:35:14.424Z,4.23
2023-05-04T22:37:43.985Z,3.53
2023-05-04T22:40:16.123Z,4.03
2023-05-04T22:42:45.859Z,4.10
2023-05-04T22:45:15.627Z,4.57
2023-05-04T22:47:45.613Z,4.33
2023-05-04T22:50:15.102Z,4.07
2023-05-04T22:52:45.530Z,4.50
2023-05-04T22:55:16.199Z,4.40
2023-05-04T22:57:45.696Z,4.27
2023-05-04T23:00:16.749Z,4.37
2023-05-04T23:02:45.979Z,4.47
2023-05-04T23:05:15.198Z,4.40
2023-05-04T23:07:44.409Z,3.63
2023-05-04T23:10:13.768Z,4.13
2023-05-04T23:12:44.783Z,3.87
2023-05-04T23:15:14.428Z,3.83
2023-05-04T23:17:43.807Z,4.80
2023-05-04T23:20:13.824Z,4.20
2023-05-04T23:22:43.190Z,4.00
2023-05-04T23:25:12.327Z,4.43
2023-05-04T23:27:41.546Z,4.23
2023-05-04T23:30:12.838Z,4.70
2023-05-04T23:32:42.106Z,4.30
2023-05-04T23:35:12.023Z,4.37
2023-05-04T23:37:41.811Z,4.80
2023-05-04T23:40:12.482Z,4.43
2023-05-04T23:42:41.909Z,4.27
2023-05-04T23:45:13.991Z,4.90
2023-05-04T23:47:43.151Z,4.10
2023-05-04T23:50:13.829Z,4.30
2023-05-04T23:52:44.105Z,4.03
2023-05-04T23:55:14.078Z,5.37
2023-05-04T23:57:45.509Z,4.90
